Mineral Ridge, Ohio
Current Conditions -  °F | °C
As of 10:51 PM on Tuesday 21 Oct 2014 (Local Time) from KYNG Reporting Station
Overcast Overcast  
Wind Chill: 41°   Ceiling: 700
Heat Index: 47°   Visibility: 10mi
Dew Point: 45°   Wind: 13mph
Humidity: 93%   Direction: 360°N
Pressure: 30.05"   Gusts: NA
Location:  41.14°N, 80.77°W
Report Text: KYNG 220251Z 36011KT 10SM OVC007 08/07 A3005 RMK AO2 SLP181 60001 T00830072 51019
Loading
Personal Weather Stations






























Interactive Weather Map
Tropical Storm Tracking
New forecast layout! Learn more

10-Day Weather Forecast

Advertisements
Track Severe Weather on mobile